Time;durP1;ratioP1;P1;durP2;ratioP2;P2;SDS_P1;SDS_P2;PMS_P1;PMS_P2;Temp;Humidity;BMP_temperature;BMP_pressure;BME280_temperature;BME280_humidity;BME280_pressure;Samples;Min_cycle;Max_cycle;Signal;HPM_P1;HPM_P2
2024/01/29 00:00:53;;;;;;;13.90;10.57;;;;;;;;;;4977598;28;20428;-68
2024/01/29 00:03:19;;;;;;;12.35;9.88;;;;;;;;;;4979010;28;20608;-69
2024/01/29 00:05:48;;;;;;;11.20;9.00;;;;;;;;;;4978657;28;20260;-68
2024/01/29 00:08:14;;;;;;;15.80;10.43;;;;;;;;;;4978830;28;20982;-70
2024/01/29 00:10:40;;;;;;;10.73;9.63;;;;;;;;;;4977143;28;20185;-69
2024/01/29 00:13:06;;;;;;;14.87;9.90;;;;;;;;;;5006519;28;20478;-68
2024/01/29 00:15:32;;;;;;;18.60;10.17;;;;;;;;;;4975280;28;20610;-69
2024/01/29 00:17:58;;;;;;;13.23;9.70;;;;;;;;;;4975303;28;20428;-68
2024/01/29 00:20:25;;;;;;;12.35;9.35;;;;;;;;;;4975399;28;20309;-69
2024/01/29 00:22:50;;;;;;;13.75;9.25;;;;;;;;;;4975604;28;20178;-68
2024/01/29 00:25:17;;;;;;;13.43;9.95;;;;;;;;;;5006565;28;20192;-68
2024/01/29 00:27:43;;;;;;;14.70;9.82;;;;;;;;;;4975574;28;20229;-69
2024/01/29 00:30:10;;;;;;;12.07;9.20;;;;;;;;;;5006492;28;20177;-68
2024/01/29 00:32:35;;;;;;;15.43;9.35;;;;;;;;;;4975294;28;20181;-68
2024/01/29 00:35:02;;;;;;;14.00;8.30;;;;;;;;;;4974984;28;20702;-68
2024/01/29 00:37:29;;;;;;;22.70;9.13;;;;;;;;;;4975291;28;20435;-68
2024/01/29 00:39:55;;;;;;;12.23;9.45;;;;;;;;;;5006685;28;20555;-69
2024/01/29 00:42:21;;;;;;;16.30;9.53;;;;;;;;;;4975547;28;20257;-69
2024/01/29 00:44:49;;;;;;;10.93;8.63;;;;;;;;;;4975301;28;20448;-69
2024/01/29 00:47:15;;;;;;;10.70;9.23;;;;;;;;;;4975108;28;20442;-69
2024/01/29 00:49:41;;;;;;;12.90;8.30;;;;;;;;;;4975087;28;20268;-70
2024/01/29 00:52:07;;;;;;;10.00;8.03;;;;;;;;;;4975166;28;20444;-68
2024/01/29 00:54:33;;;;;;;12.50;8.80;;;;;;;;;;5006064;28;20852;-69
2024/01/29 00:56:59;;;;;;;15.23;7.75;;;;;;;;;;5005806;28;20457;-68
2024/01/29 00:59:25;;;;;;;11.80;10.07;;;;;;;;;;4974872;28;20185;-68
2024/01/29 01:01:51;;;;;;;12.20;8.85;;;;;;;;;;4973652;28;20486;-69
2024/01/29 01:04:17;;;;;;;11.83;7.57;;;;;;;;;;5005808;28;20620;-68
2024/01/29 01:06:45;;;;;;;10.93;6.63;;;;;;;;;;4974405;28;20555;-70
2024/01/29 01:09:11;;;;;;;13.73;8.10;;;;;;;;;;4974420;28;20170;-68
2024/01/29 01:11:37;;;;;;;11.05;7.43;;;;;;;;;;4974578;28;20173;-68
2024/01/29 01:14:03;;;;;;;12.50;8.50;;;;;;;;;;4974451;28;20233;-70
2024/01/29 01:16:29;;;;;;;12.87;8.50;;;;;;;;;;5005270;28;20468;-70
2024/01/29 01:18:55;;;;;;;9.93;6.23;;;;;;;;;;4974565;28;20434;-70
2024/01/29 01:21:21;;;;;;;8.67;7.10;;;;;;;;;;4974536;28;20413;-70
2024/01/29 01:23:50;;;;;;;8.77;6.07;;;;;;;;;;4974122;28;20516;-70
2024/01/29 01:26:16;;;;;;;8.82;6.90;;;;;;;;;;5005164;28;20428;-70
2024/01/29 01:28:42;;;;;;;11.00;6.77;;;;;;;;;;4974129;28;20189;-70
2024/01/29 01:31:08;;;;;;;9.17;6.83;;;;;;;;;;4974139;28;20417;-69
2024/01/29 01:33:34;;;;;;;6.23;5.63;;;;;;;;;;4974058;28;20893;-69
2024/01/29 01:35:59;;;;;;;7.00;5.90;;;;;;;;;;5004531;28;20912;-70
2024/01/29 01:38:25;;;;;;;10.70;6.37;;;;;;;;;;4973895;28;20448;-69
2024/01/29 01:40:51;;;;;;;8.63;5.57;;;;;;;;;;4974060;28;20776;-69
2024/01/29 01:43:18;;;;;;;7.10;5.63;;;;;;;;;;5005161;28;20923;-69
2024/01/29 01:45:44;;;;;;;9.55;6.78;;;;;;;;;;4973899;28;20422;-70
2024/01/29 01:48:11;;;;;;;8.80;6.05;;;;;;;;;;5005603;28;20206;-69
2024/01/29 01:50:37;;;;;;;10.60;7.00;;;;;;;;;;4974533;28;20209;-69
2024/01/29 01:53:04;;;;;;;8.27;5.88;;;;;;;;;;4974279;28;20185;-70
2024/01/29 01:55:30;;;;;;;7.72;5.68;;;;;;;;;;5005022;28;20295;-70
2024/01/29 01:57:57;;;;;;;9.15;5.65;;;;;;;;;;4974092;28;20541;-70
2024/01/29 02:00:23;;;;;;;8.85;6.40;;;;;;;;;;4973760;28;20320;-71
2024/01/29 02:02:49;;;;;;;8.57;5.63;;;;;;;;;;4974361;28;20180;-70
2024/01/29 02:05:15;;;;;;;8.87;6.60;;;;;;;;;;5005598;28;20416;-69
2024/01/29 02:07:42;;;;;;;8.73;6.88;;;;;;;;;;4974035;28;20448;-70
2024/01/29 02:10:08;;;;;;;10.02;6.65;;;;;;;;;;4974355;28;20383;-70
2024/01/29 02:12:34;;;;;;;9.35;6.72;;;;;;;;;;4974107;28;20271;-69
2024/01/29 02:15:00;;;;;;;9.07;6.87;;;;;;;;;;4973813;28;20199;-70
2024/01/29 02:17:26;;;;;;;8.90;5.68;;;;;;;;;;5004862;28;20435;-70
2024/01/29 02:19:52;;;;;;;9.00;7.03;;;;;;;;;;4973674;28;20587;-70
2024/01/29 02:22:18;;;;;;;8.57;6.70;;;;;;;;;;5005622;28;20884;-70
2024/01/29 02:24:44;;;;;;;9.20;6.50;;;;;;;;;;4974266;28;20427;-71
2024/01/29 02:27:10;;;;;;;7.65;6.85;;;;;;;;;;4973994;28;20239;-69
2024/01/29 02:29:36;;;;;;;7.78;6.40;;;;;;;;;;4973544;28;20227;-70
2024/01/29 02:32:02;;;;;;;10.05;6.95;;;;;;;;;;4973359;28;20181;-70
2024/01/29 02:34:28;;;;;;;10.20;7.70;;;;;;;;;;4973093;28;20635;-69
2024/01/29 02:36:54;;;;;;;8.27;5.47;;;;;;;;;;4973094;28;20472;-69
2024/01/29 02:39:20;;;;;;;12.03;6.60;;;;;;;;;;5004618;28;20515;-70
2024/01/29 02:41:47;;;;;;;9.67;6.57;;;;;;;;;;4973248;28;20423;-70
2024/01/29 02:44:13;;;;;;;7.95;6.70;;;0.10;28.30;;;;;;4973768;28;20443;-70
2024/01/29 02:46:40;;;;;;;6.97;6.00;;;-0.60;27.90;;;;;;4973285;28;20280;-70
2024/01/29 02:49:05;;;;;;;9.45;7.13;;;-0.60;27.10;;;;;;4974138;28;20174;-70
2024/01/29 02:51:31;;;;;;;10.33;7.17;;;-0.60;26.60;;;;;;4973833;28;20525;-70
2024/01/29 02:53:56;;;;;;;10.40;6.30;;;-0.70;26.50;;;;;;4973335;28;20720;-70
2024/01/29 02:56:22;;;;;;;8.77;5.77;;;-0.70;27.10;;;;;;4973075;28;20630;-69
2024/01/29 02:58:48;;;;;;;9.27;6.80;;;-0.70;26.70;;;;;;4973079;28;20418;-71
2024/01/29 03:01:13;;;;;;;12.83;6.83;;;-0.70;26.30;;;;;;4973531;28;20177;-68
2024/01/29 03:03:39;;;;;;;11.07;6.93;;;-0.80;26.60;;;;;;5004184;28;20172;-70
2024/01/29 03:06:04;;;;;;;7.67;6.43;;;-0.80;26.50;;;;;;4972788;28;20189;-70
2024/01/29 03:08:30;;;;;;;11.13;6.53;;;-0.80;26.20;;;;;;4973643;28;20185;-72
2024/01/29 03:10:55;;;;;;;8.50;6.90;;;-0.80;25.90;;;;;;5005148;28;20271;-69
2024/01/29 03:13:21;;;;;;;9.10;6.87;;;-0.80;24.60;;;;;;4973715;28;20617;-69
2024/01/29 03:15:46;;;;;;;10.40;6.67;;;-0.80;24.90;;;;;;4973588;28;20376;-69
2024/01/29 03:18:12;;;;;;;10.37;7.23;;;-0.80;25.00;;;;;;5004558;28;20506;-70
2024/01/29 03:20:37;;;;;;;8.43;6.70;;;-0.80;26.30;;;;;;4974129;28;20177;-70
2024/01/29 03:23:03;;;;;;;6.80;5.37;;;-0.80;27.30;;;;;;5005240;28;20187;-70
2024/01/29 03:25:28;;;;;;;10.53;6.40;;;-0.80;26.80;;;;;;5004713;28;20231;-69
2024/01/29 03:27:54;;;;;;;7.60;5.73;;;-0.80;26.20;;;;;;4973326;28;20396;-71
2024/01/29 03:30:20;;;;;;;8.70;6.30;;;-0.80;26.60;;;;;;4973767;28;20225;-71
2024/01/29 03:32:45;;;;;;;9.17;6.13;;;-0.80;27.00;;;;;;4972730;28;20260;-71
2024/01/29 03:35:11;;;;;;;8.73;6.50;;;-0.80;25.30;;;;;;5003599;28;20213;-70
2024/01/29 03:37:36;;;;;;;7.60;5.70;;;-0.80;27.00;;;;;;4972679;28;20198;-70
2024/01/29 03:40:06;;;;;;;8.00;5.70;;;-0.80;26.30;;;;;;4972921;28;20200;-70
2024/01/29 03:42:31;;;;;;;6.22;5.63;;;-0.80;26.60;;;;;;5004165;28;20274;-71
2024/01/29 03:44:57;;;;;;;8.30;5.53;;;-0.80;25.20;;;;;;4973116;28;20201;-68
2024/01/29 03:47:22;;;;;;;9.77;6.10;;;-0.80;25.90;;;;;;4976405;28;20193;-68
2024/01/29 03:49:48;;;;;;;10.20;6.27;;;-0.80;25.90;;;;;;4977558;28;20176;-68
2024/01/29 03:52:14;;;;;;;7.73;5.30;;;-0.80;25.60;;;;;;4977013;28;20184;-68
2024/01/29 03:54:39;;;;;;;8.83;5.53;;;-0.90;25.70;;;;;;4977068;28;20520;-68
2024/01/29 03:57:05;;;;;;;8.50;5.43;;;-0.80;25.70;;;;;;5007625;28;20224;-69
2024/01/29 03:59:34;;;;;;;8.07;5.83;;;-0.90;24.60;;;;;;4976098;28;20181;-69
2024/01/29 04:02:00;;;;;;;7.18;5.80;;;-0.80;25.20;;;;;;4976395;28;20691;-69
2024/01/29 04:04:26;;;;;;;7.20;5.40;;;-0.80;25.50;;;;;;4976270;28;20170;-69
2024/01/29 04:06:52;;;;;;;7.27;5.30;;;-0.80;24.70;;;;;;4975760;28;20844;-67
2024/01/29 04:09:21;;;;;;;8.63;5.25;;;-0.80;25.20;;;;;;5007058;28;20185;-67
2024/01/29 04:11:47;;;;;;;9.38;5.40;;;-0.90;25.80;;;;;;4975889;28;20197;-69
2024/01/29 04:14:13;;;;;;;8.70;6.10;;;-0.80;25.10;;;;;;4976034;28;20613;-68
2024/01/29 04:16:39;;;;;;;6.87;4.93;;;-0.80;25.00;;;;;;4975419;28;20208;-68
2024/01/29 04:19:04;;;;;;;6.37;4.70;;;-0.80;24.60;;;;;;4975722;28;20184;-68
2024/01/29 04:21:30;;;;;;;9.27;6.10;;;-0.80;24.70;;;;;;4975832;28;20912;-69
2024/01/29 04:23:55;;;;;;;8.30;5.53;;;-0.90;25.00;;;;;;4975900;28;20173;-69
2024/01/29 04:26:21;;;;;;;6.47;5.60;;;-0.80;24.70;;;;;;5006569;28;20213;-68
2024/01/29 04:28:46;;;;;;;7.63;5.93;;;-0.90;24.60;;;;;;4975446;28;20640;-68
2024/01/29 04:31:13;;;;;;;7.30;6.27;;;-0.90;24.60;;;;;;5006624;28;20678;-68
2024/01/29 04:33:42;;;;;;;6.93;5.50;;;-0.90;24.60;;;;;;4975526;28;20587;-68
2024/01/29 04:36:07;;;;;;;9.70;6.40;;;-0.90;24.60;;;;;;4975175;28;20724;-68
2024/01/29 04:38:33;;;;;;;9.80;5.90;;;-1.00;24.70;;;;;;4975343;28;20178;-68
2024/01/29 04:40:58;;;;;;;8.63;5.20;;;-1.00;24.90;;;;;;5006515;28;20645;-68
2024/01/29 04:43:24;;;;;;;7.83;5.47;;;-0.90;24.60;;;;;;4975293;28;20649;-68
2024/01/29 04:45:49;;;;;;;10.63;6.60;;;-1.00;23.20;;;;;;4974845;28;20188;-70
2024/01/29 04:48:15;;;;;;;9.80;7.07;;;-1.00;24.60;;;;;;4975187;28;20212;-70
2024/01/29 04:50:40;;;;;;;10.00;6.00;;;-1.00;24.60;;;;;;4975100;28;20200;-69
2024/01/29 04:53:06;;;;;;;8.40;6.30;;;-1.00;24.60;;;;;;4973819;28;20748;-68
2024/01/29 04:55:32;;;;;;;11.73;8.13;;;-1.00;24.60;;;;;;4974629;28;20565;-69
2024/01/29 04:57:57;;;;;;;10.47;7.37;;;-1.00;24.50;;;;;;4974731;28;20273;-69
2024/01/29 05:00:23;;;;;;;10.93;7.40;;;-1.00;24.60;;;;;;4974837;28;20188;-68
2024/01/29 05:02:49;;;;;;;12.82;8.13;;;-1.00;25.10;;;;;;4974845;28;20174;-70
2024/01/29 05:05:15;;;;;;;9.60;7.27;;;-1.00;24.60;;;;;;4974686;28;20177;-68
2024/01/29 05:07:42;;;;;;;10.40;6.90;;;-1.00;24.60;;;;;;4974655;28;20227;-69
2024/01/29 05:10:08;;;;;;;9.57;6.38;;;-1.00;24.60;;;;;;4973193;28;20188;-68
2024/01/29 05:12:33;;;;;;;8.93;6.55;;;-0.90;24.60;;;;;;4974784;28;20240;-68
2024/01/29 05:14:59;;;;;;;8.73;6.17;;;-0.90;24.60;;;;;;4974406;28;20256;-68
2024/01/29 05:17:25;;;;;;;7.97;5.53;;;-0.90;24.60;;;;;;4974658;28;20189;-68
2024/01/29 05:19:50;;;;;;;7.27;5.70;;;-0.90;24.60;;;;;;5005721;28;20189;-69
2024/01/29 05:22:16;;;;;;;8.00;5.17;;;-0.90;24.60;;;;;;5005686;28;20232;-68
2024/01/29 05:24:41;;;;;;;6.77;4.90;;;-0.90;24.60;;;;;;5005434;28;20209;-68
2024/01/29 05:27:07;;;;;;;10.93;5.77;;;-0.80;24.70;;;;;;4987793;28;20295;-68
2024/01/29 05:29:32;;;;;;;7.77;5.17;;;-0.80;24.10;;;;;;4993700;28;20185;-68
2024/01/29 05:31:58;;;;;;;7.10;5.97;;;-0.70;24.70;;;;;;4993834;28;20258;-69
2024/01/29 05:34:23;;;;;;;6.60;5.80;;;-0.70;23.20;;;;;;4995108;28;20184;-69
2024/01/29 05:36:49;;;;;;;7.90;6.13;;;-0.70;23.50;;;;;;4994378;28;20208;-69
2024/01/29 05:39:14;;;;;;;7.27;4.77;;;-0.60;23.70;;;;;;4994084;28;20543;-69
2024/01/29 05:41:40;;;;;;;7.73;5.53;;;-0.60;22.70;;;;;;4994190;28;20267;-68
2024/01/29 05:44:06;;;;;;;6.00;5.10;;;-0.50;22.00;;;;;;4993846;28;20177;-69
2024/01/29 05:46:31;;;;;;;7.30;4.97;;;-0.50;21.80;;;;;;4993409;28;20253;-68
2024/01/29 05:48:57;;;;;;;6.30;4.37;;;-0.50;21.60;;;;;;4992162;28;20185;-68
2024/01/29 05:51:22;;;;;;;7.00;5.13;;;-0.40;20.80;;;;;;4993472;28;20522;-69
2024/01/29 05:53:48;;;;;;;7.23;5.23;;;-0.40;21.10;;;;;;4993316;28;20185;-68
2024/01/29 05:56:13;;;;;;;7.70;5.80;;;-0.40;20.80;;;;;;4993270;28;20209;-68
2024/01/29 05:58:42;;;;;;;10.57;6.17;;;-0.40;20.20;;;;;;4993324;28;20181;-70
2024/01/29 06:01:07;;;;;;;7.90;5.15;;;-0.40;20.40;;;;;;4992911;28;20181;-69
2024/01/29 06:03:33;;;;;;;11.00;6.40;;;-0.30;20.00;;;;;;4991683;28;20187;-69
2024/01/29 06:05:58;;;;;;;5.37;4.00;;;-0.30;19.40;;;;;;4993012;28;20180;-69
2024/01/29 06:08:24;;;;;;;6.27;5.43;;;-0.30;20.30;;;;;;4991934;28;20219;-70
2024/01/29 06:10:50;;;;;;;8.17;5.00;;;-0.30;19.70;;;;;;4993823;28;20279;-69
2024/01/29 06:13:15;;;;;;;10.63;4.97;;;-0.30;19.30;;;;;;4991535;28;20183;-70
2024/01/29 06:15:41;;;;;;;6.47;5.10;;;-0.30;19.90;;;;;;4993018;28;20201;-70
2024/01/29 06:18:07;;;;;;;7.97;5.80;;;-0.30;19.30;;;;;;4993081;28;20571;-70
2024/01/29 06:20:32;;;;;;;6.63;5.37;;;-0.30;19.30;;;;;;4993138;28;20180;-70
2024/01/29 06:22:58;;;;;;;7.33;5.30;;;-0.40;18.90;;;;;;4992254;28;20260;-70
2024/01/29 06:25:23;;;;;;;18.00;6.73;;;-0.40;20.50;;;;;;4992899;28;20529;-70
2024/01/29 06:27:49;;;;;;;7.47;5.27;;;-0.30;19.90;;;;;;4992582;28;20208;-71
2024/01/29 06:30:15;;;;;;;9.70;5.20;;;-0.30;19.90;;;;;;4992962;28;20177;-71
2024/01/29 06:32:43;;;;;;;7.50;4.45;;;-0.30;19.40;;;;;;4992610;28;20191;-70
2024/01/29 06:35:10;;;;;;;9.23;6.68;;;-0.30;20.00;;;;;;4992253;28;20219;-69
2024/01/29 06:37:36;;;;;;;9.35;5.10;;;-0.30;20.10;;;;;;4992348;28;20203;-69
2024/01/29 06:40:01;;;;;;;7.63;6.40;;;-0.30;20.30;;;;;;4992543;28;20176;-75
2024/01/29 06:42:27;;;;;;;8.30;6.00;;;-0.30;20.20;;;;;;4992693;28;20172;-69
2024/01/29 06:44:55;;;;;;;9.63;6.40;;;-0.40;20.20;;;;;;4992627;28;20246;-70
2024/01/29 06:47:21;;;;;;;8.50;5.15;;;-0.40;20.00;;;;;;4991131;28;20200;-71
2024/01/29 06:49:46;;;;;;;9.13;5.60;;;-0.30;20.50;;;;;;4992340;28;20332;-70
2024/01/29 06:52:12;;;;;;;10.03;6.23;;;-0.30;20.50;;;;;;4992503;28;20703;-68
2024/01/29 06:54:37;;;;;;;7.67;5.53;;;-0.40;20.80;;;;;;4992604;28;20229;-69
2024/01/29 06:57:03;;;;;;;7.30;6.60;;;-0.40;20.80;;;;;;4992501;28;20291;-69
2024/01/29 06:59:29;;;;;;;8.47;5.73;;;-0.40;20.50;;;;;;4990866;28;20227;-71
2024/01/29 07:01:58;;;;;;;9.33;6.03;;;-0.40;21.20;;;;;;4992380;28;20720;-69
2024/01/29 07:04:24;;;;;;;10.50;6.03;;;-0.40;20.80;;;;;;4992353;28;20180;-71
2024/01/29 07:06:50;;;;;;;7.87;5.70;;;-0.30;20.10;;;;;;5003480;23;20559;-69
2024/01/29 07:09:16;;;;;;;10.60;5.77;;;-0.40;20.10;;;;;;4992299;28;20185;-69
2024/01/29 07:11:41;;;;;;;10.25;6.65;;;-0.40;21.10;;;;;;4992880;28;20177;-69
2024/01/29 07:14:07;;;;;;;12.67;6.20;;;-0.30;21.40;;;;;;4994021;28;20235;-69
2024/01/29 07:16:32;;;;;;;8.70;6.83;;;-0.30;20.90;;;;;;4990110;28;20667;-69
2024/01/29 07:18:58;;;;;;;8.40;6.47;;;-0.30;20.60;;;;;;4972501;28;20247;-69
2024/01/29 07:21:23;;;;;;;7.50;5.73;;;-0.20;21.00;;;;;;4975812;28;20646;-69
2024/01/29 07:23:49;;;;;;;8.13;6.20;;;-0.20;20.90;;;;;;4976270;28;20196;-67
2024/01/29 07:26:15;;;;;;;8.87;7.00;;;-0.10;20.40;;;;;;4976386;28;20200;-66
2024/01/29 07:28:40;;;;;;;6.93;5.13;;;-0.10;20.40;;;;;;4976417;28;20201;-74
2024/01/29 07:31:06;;;;;;;7.97;6.30;;;-0.10;21.00;;;;;;4976293;28;20173;-67
2024/01/29 07:33:31;;;;;;;11.67;6.90;;;0.00;21.10;;;;;;4975749;28;20185;-66
2024/01/29 07:35:57;;;;;;;9.80;5.60;;;0.10;21.00;;;;;;4975615;28;20583;-66
2024/01/29 07:38:23;;;;;;;9.53;6.97;;;0.20;19.70;;;;;;4975514;28;20200;-68
2024/01/29 07:40:48;;;;;;;7.10;6.37;;;0.20;20.10;;;;;;4976029;28;20838;-66
2024/01/29 07:43:14;;;;;;;7.13;5.70;;;0.30;20.30;;;;;;4975811;28;20170;-66
2024/01/29 07:45:39;;;;;;;10.77;6.57;;;0.40;19.20;;;;;;4975674;28;20181;-66
2024/01/29 07:48:05;;;;;;;11.37;7.33;;;0.40;20.20;;;;;;4975415;28;20233;-66
2024/01/29 07:50:31;;;;;;;8.10;5.47;;;0.50;18.70;;;;;;4975528;28;20208;-68
2024/01/29 07:52:57;;;;;;;8.70;6.00;;;0.60;17.30;;;;;;4975254;28;20451;-67
2024/01/29 07:55:23;;;;;;;6.80;6.10;;;0.70;17.00;;;;;;4975354;28;20237;-66
2024/01/29 07:57:49;;;;;;;7.05;6.20;;;0.70;17.00;;;;;;4975430;28;20221;-66
2024/01/29 08:00:15;;;;;;;8.43;6.47;;;0.80;17.00;;;;;;4974669;28;20602;-66
2024/01/29 08:02:40;;;;;;;8.18;6.07;;;0.90;15.40;;;;;;4975051;28;20445;-68
2024/01/29 08:05:06;;;;;;;7.37;5.97;;;0.90;14.80;;;;;;4974635;28;20210;-67
2024/01/29 08:07:31;;;;;;;10.50;5.70;;;1.00;14.30;;;;;;4974583;28;20591;-66
2024/01/29 08:10:00;;;;;;;9.67;6.47;;;1.10;14.20;;;;;;4974794;28;20548;-67
2024/01/29 08:12:26;;;;;;;7.20;5.05;;;1.10;13.40;;;;;;4975095;28;20639;-67
2024/01/29 08:14:52;;;;;;;9.03;6.23;;;1.20;14.30;;;;;;4974670;28;20174;-71
2024/01/29 08:17:17;;;;;;;10.17;6.40;;;1.20;13.50;;;;;;4975016;28;20611;-68
2024/01/29 08:19:43;;;;;;;10.37;7.07;;;1.30;14.30;;;;;;4975083;28;20196;-67
2024/01/29 08:22:08;;;;;;;10.50;7.23;;;1.40;12.50;;;;;;4974035;28;20552;-67
2024/01/29 08:24:34;;;;;;;11.37;7.40;;;1.40;13.60;;;;;;4975142;28;20182;-67
2024/01/29 08:27:00;;;;;;;13.90;9.10;;;1.50;13.70;;;;;;4974789;28;20288;-69
2024/01/29 08:29:25;;;;;;;11.43;9.47;;;1.60;12.00;;;;;;4974637;28;20274;-68
2024/01/29 08:31:51;;;;;;;11.30;9.70;;;1.80;10.90;;;;;;4974256;28;20211;-68
2024/01/29 08:34:17;;;;;;;15.45;9.68;;;1.80;10.80;;;;;;4975122;28;20177;-68
2024/01/29 08:36:42;;;;;;;13.50;10.40;;;1.90;9.30;;;;;;4974888;28;20222;-68
2024/01/29 08:39:08;;;;;;;13.60;9.23;;;2.00;10.20;;;;;;4974736;28;20642;-68
2024/01/29 08:41:34;;;;;;;12.97;8.27;;;2.10;8.10;;;;;;4975051;28;20216;-67
2024/01/29 08:43:59;;;;;;;9.60;7.40;;;2.30;8.00;;;;;;4975218;28;20239;-67
2024/01/29 08:46:25;;;;;;;9.43;6.63;;;2.40;6.40;;;;;;4974699;28;20189;-67
2024/01/29 08:48:50;;;;;;;12.43;8.07;;;2.50;4.50;;;;;;4974852;28;20207;-67
2024/01/29 08:51:17;;;;;;;9.73;6.47;;;2.60;4.80;;;;;;4974875;28;20654;-68
2024/01/29 08:53:43;;;;;;;8.88;6.90;;;2.70;5.30;;;;;;4974686;28;20648;-68
2024/01/29 08:56:09;;;;;;;7.03;5.03;;;2.80;4.10;;;;;;4972953;28;20217;-68
2024/01/29 08:58:35;;;;;;;9.23;6.60;;;2.90;1.00;;;;;;4974482;28;20270;-68
2024/01/29 09:01:02;;;;;;;8.20;5.53;;;2.90;1.00;;;;;;4974353;28;20419;-67
2024/01/29 09:03:28;;;;;;;6.82;4.63;;;3.00;1.00;;;;;;4974426;28;20622;-68
2024/01/29 09:05:54;;;;;;;7.73;4.80;;;3.10;1.00;;;;;;4974225;28;20197;-69
2024/01/29 09:08:20;;;;;;;6.30;4.73;;;3.30;1.00;;;;;;4974419;28;20462;-68
2024/01/29 09:10:46;;;;;;;8.37;6.20;;;3.40;1.00;;;;;;4974456;28;20264;-68
2024/01/29 09:13:12;;;;;;;11.03;6.43;;;3.50;1.00;;;;;;4974425;28;20519;-68
2024/01/29 09:15:38;;;;;;;6.40;5.23;;;3.60;1.00;;;;;;4972793;28;20211;-68
2024/01/29 09:18:04;;;;;;;14.37;5.80;;;3.70;1.00;;;;;;4973995;28;20469;-68
2024/01/29 09:20:29;;;;;;;12.37;5.33;;;3.80;1.00;;;;;;4974105;28;20412;-67
2024/01/29 09:22:55;;;;;;;10.13;5.97;;;3.90;1.00;;;;;;4974149;28;20427;-69
2024/01/29 09:25:20;;;;;;;6.53;5.80;;;3.90;1.00;;;;;;4973831;28;20279;-68
2024/01/29 09:27:46;;;;;;;9.60;5.20;;;4.10;1.00;;;;;;4973948;28;20640;-68
2024/01/29 09:30:12;;;;;;;6.20;5.30;;;4.10;1.00;;;;;;4973891;28;20185;-68
2024/01/29 09:32:37;;;;;;;9.57;6.90;;;4.20;1.00;;;;;;4973904;28;20189;-68
2024/01/29 09:35:04;;;;;;;11.87;6.00;;;4.30;1.00;;;;;;4973587;28;20420;-68
2024/01/29 09:37:29;;;;;;;6.00;4.63;;;4.40;1.00;;;;;;4972557;28;20299;-67
2024/01/29 09:39:55;;;;;;;10.43;5.30;;;4.60;1.00;;;;;;4973583;28;20451;-68
2024/01/29 09:42:24;;;;;;;7.27;4.93;;;4.70;1.00;;;;;;4973695;28;20187;-67
2024/01/29 09:44:53;;;;;;;7.80;5.53;;;4.80;1.00;;;;;;4973608;28;20236;-68
2024/01/29 09:47:20;;;;;;;7.37;5.20;;;4.90;1.00;;;;;;4973285;28;20939;-68
2024/01/29 09:49:46;;;;;;;11.80;5.40;;;5.00;1.00;;;;;;4973391;28;20460;-68
2024/01/29 09:52:13;;;;;;;8.00;4.93;;;;;;;;;;4973409;28;20515;-68
2024/01/29 09:54:40;;;;;;;6.90;5.43;;;;;;;;;;4973570;28;20427;-68
2024/01/29 09:57:09;;;;;;;5.00;4.20;;;5.10;1.00;;;;;;4973021;28;20546;-68
2024/01/29 09:59:35;;;;;;;5.90;4.23;;;5.40;1.00;;;;;;4973234;28;20421;-67
2024/01/29 10:02:03;;;;;;;5.63;4.30;;;5.60;1.00;;;;;;4973261;28;20420;-68
2024/01/29 10:04:28;;;;;;;6.30;4.10;;;5.70;1.00;;;;;;4973201;28;20209;-68
2024/01/29 10:06:54;;;;;;;5.53;4.50;;;5.90;1.00;;;;;;4972923;28;20912;-68
2024/01/29 10:09:20;;;;;;;9.17;4.60;;;6.00;1.00;;;;;;4973035;28;20712;-68
2024/01/29 10:11:46;;;;;;;6.70;4.17;;;6.20;1.00;;;;;;4973136;28;20179;-67
2024/01/29 10:14:12;;;;;;;9.00;4.87;;;6.30;1.00;;;;;;4973172;28;20181;-69
2024/01/29 10:16:37;;;;;;;7.80;5.43;;;6.40;1.00;;;;;;4971800;28;20545;-68
2024/01/29 10:19:03;;;;;;;8.27;5.60;;;6.50;1.00;;;;;;4972996;28;20422;-68
2024/01/29 10:21:36;;;;;;;7.50;6.60;;;6.60;1.00;;;;;;4973858;28;20266;-69
2024/01/29 10:24:02;;;;;;;10.10;5.70;;;6.70;1.00;;;;;;4974632;28;20179;-67
2024/01/29 10:26:28;;;;;;;6.37;5.70;;;6.80;1.00;;;;;;4974630;28;20418;-67
2024/01/29 10:29:07;;;;;;;8.43;5.70;;;7.00;1.00;;;;;;4973909;28;20420;-69
2024/01/29 10:31:33;;;;;;;6.13;5.30;;;7.20;1.00;;;;;;4974799;28;20175;-68
2024/01/29 10:33:59;;;;;;;9.60;6.70;;;7.30;1.00;;;;;;4975031;28;20813;-69
2024/01/29 10:36:26;;;;;;;12.33;5.70;;;7.40;1.00;;;;;;4973742;28;20550;-68
2024/01/29 10:38:52;;;;;;;6.90;6.07;;;7.50;1.00;;;;;;4971883;28;20428;-69
2024/01/29 10:41:20;;;;;;;7.27;5.90;;;7.60;1.00;;;;;;4973409;28;20420;-69
2024/01/29 10:43:48;;;;;;;6.70;5.70;;;7.70;1.00;;;;;;4973449;28;20503;-69
2024/01/29 10:46:22;;;;;;;9.30;6.33;;;7.80;1.00;;;;;;4973981;28;20504;-69
2024/01/29 10:48:49;;;;;;;8.60;5.97;;;8.00;1.00;;;;;;4973313;28;20420;-69
2024/01/29 10:51:16;;;;;;;9.63;6.23;;;8.20;1.00;;;;;;4973345;28;20427;-69
2024/01/29 10:53:43;;;;;;;8.63;5.97;;;8.30;1.00;;;;;;4973879;28;20429;-69
2024/01/29 10:56:09;;;;;;;7.83;5.30;;;8.50;1.00;;;;;;4972703;28;20456;-69
2024/01/29 10:58:36;;;;;;;7.60;5.90;;;8.60;1.00;;;;;;4973631;28;20440;-68
2024/01/29 11:01:03;;;;;;;7.90;5.27;;;8.60;1.00;;;;;;4974003;28;20421;-69
2024/01/29 11:03:29;;;;;;;14.37;6.43;;;8.70;1.00;;;;;;4972887;28;20885;-68
2024/01/29 11:06:19;;;;;;;7.07;5.40;;;8.90;1.00;;;;;;4974117;28;20954;-68
2024/01/29 11:08:52;;;;;;;5.63;5.03;;;9.10;1.00;;;;;;4974218;28;20531;-69
2024/01/29 11:11:18;;;;;;;11.70;6.23;;;9.40;1.00;;;;;;4973916;28;20861;-68
2024/01/29 11:13:44;;;;;;;7.93;6.03;;;9.50;1.00;;;;;;4973936;28;20423;-69
2024/01/29 11:16:10;;;;;;;5.57;4.90;;;9.70;1.00;;;;;;4973715;28;20531;-70
2024/01/29 11:18:36;;;;;;;13.50;6.97;;;9.80;1.00;;;;;;4974009;28;20193;-69
2024/01/29 11:21:02;;;;;;;15.53;6.67;;;10.00;1.00;;;;;;4973912;28;20428;-69
2024/01/29 11:23:28;;;;;;;7.83;6.30;;;10.10;1.00;;;;;;4973833;28;20177;-69
2024/01/29 11:25:58;;;;;;;9.17;6.97;;;10.30;1.00;;;;;;4973385;28;20416;-69
2024/01/29 11:28:28;;;;;;;8.53;6.63;;;10.40;1.00;;;;;;4973399;28;20200;-69
2024/01/29 11:30:53;;;;;;;10.17;6.80;;;10.50;1.00;;;;;;4973274;28;20420;-69
2024/01/29 11:33:20;;;;;;;13.53;6.63;;;10.70;1.00;;;;;;4972970;28;20420;-69
2024/01/29 11:35:46;;;;;;;11.10;7.17;;;10.70;1.00;;;;;;4973218;28;20214;-69
2024/01/29 11:38:13;;;;;;;7.77;6.63;;;10.90;1.00;;;;;;4973502;28;20433;-69
2024/01/29 11:40:43;;;;;;;7.73;6.97;;;11.10;1.00;;;;;;4971797;28;20414;-69
2024/01/29 11:43:11;;;;;;;10.93;7.77;;;11.30;1.00;;;;;;4973967;28;20427;-69
2024/01/29 11:45:37;;;;;;;10.50;8.60;;;;;;;;;;4973379;28;20503;-69
2024/01/29 11:48:11;;;;;;;8.30;7.47;;;11.50;1.00;;;;;;4973487;28;20460;-69
2024/01/29 11:50:41;;;;;;;11.70;7.37;;;11.80;1.00;;;;;;4973387;28;20778;-69
2024/01/29 11:53:15;;;;;;;11.67;7.30;;;11.90;1.00;;;;;;4973475;28;20432;-69
2024/01/29 11:55:42;;;;;;;8.53;6.40;;;11.90;1.00;;;;;;4972934;28;20976;-68
2024/01/29 11:58:26;;;;;;;8.33;6.60;;;12.00;1.00;;;;;;4972323;28;20756;-68
2024/01/29 12:00:52;;;;;;;7.10;6.03;;;12.20;1.00;;;;;;4972474;28;20412;-69
2024/01/29 12:03:35;;;;;;;7.90;6.10;;;12.30;1.00;;;;;;4972326;28;20919;-69
2024/01/29 12:06:01;;;;;;;9.60;6.73;;;12.40;1.00;;;;;;4972083;28;20264;-70
2024/01/29 12:08:27;;;;;;;7.20;6.00;;;12.50;1.00;;;;;;4973018;28;20543;-70
2024/01/29 12:11:00;;;;;;;6.67;5.37;;;12.50;1.00;;;;;;4975490;28;20488;-69
2024/01/29 12:13:27;;;;;;;8.00;5.80;;;12.50;1.00;;;;;;4974394;28;20459;-69
2024/01/29 12:15:53;;;;;;;8.10;5.80;;;12.40;1.00;;;;;;4975162;28;20510;-69
2024/01/29 12:18:24;;;;;;;7.53;6.13;;;12.40;1.00;;;;;;4975431;28;20719;-69
2024/01/29 12:20:50;;;;;;;7.37;5.80;;;12.50;1.00;;;;;;4975286;28;20441;-69
2024/01/29 12:23:22;;;;;;;12.27;6.27;;;12.70;1.00;;;;;;4976554;28;20440;-69
2024/01/29 12:25:54;;;;;;;7.60;6.50;;;12.80;1.00;;;;;;4975010;28;20560;-69
2024/01/29 12:28:20;;;;;;;7.20;5.13;;;12.90;1.00;;;;;;4975233;28;20442;-69
2024/01/29 12:30:56;;;;;;;11.07;4.97;;;12.90;1.00;;;;;;4975294;28;20502;-68
2024/01/29 12:33:29;;;;;;;13.20;5.60;;;12.90;1.00;;;;;;4974880;28;20435;-69
2024/01/29 12:35:55;;;;;;;7.67;5.73;;;13.00;1.00;;;;;;4974765;28;20473;-68
2024/01/29 12:38:22;;;;;;;6.37;5.70;;;13.00;1.00;;;;;;4974788;28;20437;-69
2024/01/29 12:40:49;;;;;;;7.17;5.93;;;13.00;1.00;;;;;;4974864;28;20967;-68
2024/01/29 12:43:14;;;;;;;7.57;6.00;;;13.10;1.00;;;;;;4975038;28;20979;-68
2024/01/29 12:45:41;;;;;;;8.30;6.33;;;13.00;1.00;;;;;;4974620;28;20417;-67
2024/01/29 12:48:09;;;;;;;6.60;5.67;;;13.10;1.00;;;;;;4974904;28;20197;-69
2024/01/29 12:50:35;;;;;;;7.20;6.03;;;13.20;1.00;;;;;;4974620;28;20416;-67
2024/01/29 12:53:01;;;;;;;6.17;4.87;;;13.30;1.00;;;;;;4974736;28;20808;-68
2024/01/29 12:55:27;;;;;;;5.73;4.90;;;13.50;1.00;;;;;;4974405;28;20738;-68
2024/01/29 12:57:53;;;;;;;6.07;5.47;;;13.60;1.00;;;;;;4974539;28;20441;-69
2024/01/29 13:00:18;;;;;;;12.07;5.67;;;13.60;1.00;;;;;;4974414;28;20900;-69
2024/01/29 13:02:44;;;;;;;5.20;4.70;;;13.70;1.00;;;;;;4974393;28;20173;-69
2024/01/29 13:05:09;;;;;;;6.17;5.50;;;13.80;1.00;;;;;;4972822;28;20184;-69
2024/01/29 13:07:37;;;;;;;7.77;6.37;;;13.80;1.00;;;;;;4974467;28;20216;-69